Česky Dansk Deutsch English Español Suomi Français Magyar Italiano Nederlands norsk Polski Português svenska Türkçe

 

Het Weer

Van (Turkije)

01:50, 17 augustus 2016 (GMT)

NWNNE
WE
SWSSE
Home            
Van Khoy Mus Tur-Afb Orumieh Batman Yerevan Mosul Kars Erzurum Kamishli Tabriz Maragheh / Sahand Diyarbakir Elazig Saghez Erzincan Gyanca Airport Tbilisi Muhrani Trabzon Urfa Ardabil Deir Ezzor

Om een weerknop op uw website of weblog te plaatsen, copieer onderstaande code en plak die in uw pagina. In het eerste vakje staat HTML-code, in het tweede vakje UBB-code.


Add to Google

Details

Wind speed:2 bf, 4 kn, 2.1 m/s, 4.6 miles/h, 7.4 km/h
Wind direction:S, 190° - W, 270°
Visibility:Greater than 10000 m, 10 km, 32800 ft, 6.2 miles
Clouds:Ein wenig bewölkt at 4000 ft, 1219 m
Temperature:22°C, 72°F
Gefühlte Temperatur:25°C, 77°F
Dew-point:10°C, 50°F
Atmospheric pressure:1013 hPa, 759.8 mmHg, 29.91 inHg, 1.000 atm
Relative humidity:46.4 %
METAR:LTCI 170150Z 23004KT 190V270 9999 FEW040 22/10 Q1013 NOSIG

Snelkoppelingen

Actuele weersinformatie van de hele wereld. Voeg locaties toe met het plus (+) symbool. Deze snelkoppelingen kunnen worden toegevoegd aan Google.

Lid van de Technetium groep

website free tracking
StatCounter NetStat W3C Validator

23-04-2019 12:09:53
astro.technetium.be money.technetium.be phote.technetium.be tafeltennistafel.technetium.be www.ligfiets.net